createdAt,value
2023-03-27T00:00:29.927Z,983.71
2023-03-27T00:01:00.818Z,983.51
2023-03-27T00:01:33.604Z,983.51
2023-03-27T00:02:04.897Z,983.51
2023-03-27T00:02:36.908Z,983.51
2023-03-27T00:03:08.824Z,983.44
2023-03-27T00:03:34.808Z,983.71
2023-03-27T00:03:56.780Z,983.71
2023-03-27T00:04:28.758Z,983.71
2023-03-27T00:05:03.261Z,983.81
2023-03-27T00:05:33.319Z,983.81
2023-03-27T00:06:04.754Z,983.61
2023-03-27T00:06:36.734Z,983.61
2023-03-27T00:07:08.829Z,983.81
2023-03-27T00:07:34.699Z,983.91
2023-03-27T00:07:57.566Z,983.91
2023-03-27T00:08:28.773Z,983.91
2023-03-27T00:09:00.859Z,983.91
2023-03-27T00:09:33.356Z,983.91
2023-03-27T00:10:05.062Z,983.81
2023-03-27T00:10:37.385Z,983.81
2023-03-27T00:11:09.481Z,983.81
2023-03-27T00:11:34.700Z,983.81
2023-03-27T00:11:56.734Z,983.81
2023-03-27T00:12:28.744Z,983.81
2023-03-27T00:13:00.856Z,984.02
2023-03-27T00:13:33.304Z,984.02
2023-03-27T00:14:04.770Z,984.12
2023-03-27T00:14:36.768Z,984.12
2023-03-27T00:15:09.309Z,983.91
2023-03-27T00:15:34.767Z,984.02
2023-03-27T00:15:56.982Z,984.02
2023-03-27T00:16:28.820Z,984.02
2023-03-27T00:17:00.931Z,983.91
2023-03-27T00:17:33.762Z,983.91
2023-03-27T00:18:04.782Z,984.02
2023-03-27T00:18:36.792Z,984.02
2023-03-27T00:19:08.831Z,983.91
2023-03-27T00:19:34.725Z,984.12
2023-03-27T00:19:56.762Z,984.12
2023-03-27T00:20:29.074Z,984.12
2023-03-27T00:21:00.810Z,984.12
2023-03-27T00:21:33.346Z,984.12
2023-03-27T00:22:04.820Z,983.91
2023-03-27T00:22:36.753Z,983.91
2023-03-27T00:23:08.798Z,984.02
2023-03-27T00:23:34.692Z,984.12
2023-03-27T00:23:57.494Z,984.12
2023-03-27T00:24:28.771Z,984.12
2023-03-27T00:25:03.451Z,984.12
2023-03-27T00:25:33.312Z,984.12
2023-03-27T00:26:04.754Z,984.22
2023-03-27T00:26:36.739Z,984.22
2023-03-27T00:27:09.448Z,984.12
2023-03-27T00:27:35.111Z,984.02
2023-03-27T00:27:56.724Z,984.02
2023-03-27T00:28:28.730Z,984.02
2023-03-27T00:29:00.815Z,984.12
2023-03-27T00:29:33.276Z,984.12
2023-03-27T00:30:06.690Z,984.32
2023-03-27T00:30:36.827Z,984.32
2023-03-27T00:31:08.840Z,984.32
2023-03-27T00:31:34.717Z,984.32
2023-03-27T00:31:56.749Z,984.32
2023-03-27T00:32:28.786Z,984.32
2023-03-27T00:33:01.073Z,984.22
2023-03-27T00:33:34.264Z,984.22
2023-03-27T00:34:04.753Z,984.42
2023-03-27T00:34:36.786Z,984.42
2023-03-27T00:35:09.097Z,984.42
2023-03-27T00:35:34.736Z,984.52
2023-03-27T00:35:57.000Z,984.52
2023-03-27T00:36:28.747Z,984.52
2023-03-27T00:37:00.801Z,984.52
2023-03-27T00:37:33.372Z,984.52
2023-03-27T00:38:04.743Z,984.52
2023-03-27T00:38:36.806Z,984.52
2023-03-27T00:39:08.759Z,984.62
2023-03-27T00:39:34.714Z,984.62
2023-03-27T00:39:57.577Z,984.62
2023-03-27T00:40:29.210Z,984.62
2023-03-27T00:41:01.288Z,984.73
2023-03-27T00:41:33.688Z,984.73
2023-03-27T00:42:04.860Z,984.52
2023-03-27T00:42:36.853Z,984.52
2023-03-27T00:43:09.757Z,984.52
2023-03-27T00:43:35.161Z,984.62
2023-03-27T00:43:57.536Z,984.62
2023-03-27T00:44:28.967Z,984.62
2023-03-27T00:45:04.779Z,984.62
2023-03-27T00:45:33.685Z,984.62
2023-03-27T00:46:05.169Z,984.73
2023-03-27T00:46:36.987Z,984.73
2023-03-27T00:47:08.915Z,984.83
2023-03-27T00:47:34.855Z,984.93
2023-03-27T00:47:56.925Z,984.93
2023-03-27T00:48:29.172Z,984.93
2023-03-27T00:49:00.968Z,984.93
2023-03-27T00:49:33.886Z,984.93
2023-03-27T00:50:05.150Z,984.83
2023-03-27T00:50:37.143Z,984.83
2023-03-27T00:51:09.164Z,984.62
2023-03-27T00:51:35.469Z,984.93
2023-03-27T00:51:56.751Z,984.93
2023-03-27T00:52:28.791Z,984.93
2023-03-27T00:53:00.962Z,984.83
2023-03-27T00:53:33.525Z,984.83
2023-03-27T00:54:04.783Z,984.83
2023-03-27T00:54:36.777Z,984.83
2023-03-27T00:55:09.197Z,984.73
2023-03-27T00:55:35.182Z,984.83
2023-03-27T00:55:57.899Z,984.83
2023-03-27T00:56:28.832Z,984.83
2023-03-27T00:57:01.090Z,984.93
2023-03-27T00:57:33.543Z,984.93
2023-03-27T00:58:04.873Z,984.83
2023-03-27T00:58:37.210Z,984.83
2023-03-27T00:59:09.814Z,984.73
2023-03-27T00:59:34.790Z,984.83
2023-03-27T00:59:56.830Z,984.83
2023-03-27T01:00:29.459Z,984.83
2023-03-27T01:01:00.913Z,984.83
2023-03-27T01:01:33.507Z,984.83
2023-03-27T01:02:04.850Z,984.93
2023-03-27T01:02:36.904Z,984.93
2023-03-27T01:03:08.963Z,984.83
2023-03-27T01:03:34.914Z,984.83
2023-03-27T01:03:56.892Z,984.83
2023-03-27T01:04:28.877Z,984.83
2023-03-27T01:05:03.355Z,984.93
2023-03-27T01:05:33.729Z,984.93
2023-03-27T01:06:04.824Z,984.83
2023-03-27T01:06:36.834Z,984.83
2023-03-27T01:07:08.857Z,985.03
2023-03-27T01:07:34.730Z,984.93
2023-03-27T01:08:00.682Z,984.93
2023-03-27T01:08:28.780Z,984.93
2023-03-27T01:09:01.142Z,985.13
2023-03-27T01:09:33.493Z,985.13
2023-03-27T01:10:05.064Z,984.73
2023-03-27T01:10:36.793Z,984.73
2023-03-27T01:11:08.911Z,984.83
2023-03-27T01:11:34.724Z,985.03
2023-03-27T01:11:57.602Z,985.03
2023-03-27T01:12:28.828Z,985.03
2023-03-27T01:13:00.925Z,985.03
2023-03-27T01:13:34.159Z,985.03
2023-03-27T01:14:04.818Z,985.13
2023-03-27T01:14:36.869Z,985.13
2023-03-27T01:15:10.131Z,985.03
2023-03-27T01:15:34.788Z,985.13
2023-03-27T01:15:57.084Z,985.13
2023-03-27T01:16:28.808Z,985.13
2023-03-27T01:17:00.856Z,985.23
2023-03-27T01:17:33.484Z,985.23
2023-03-27T01:18:04.869Z,985.34
2023-03-27T01:18:36.785Z,985.34
2023-03-27T01:19:08.822Z,985.13
2023-03-27T01:19:34.722Z,985.03
2023-03-27T01:19:56.773Z,985.03
2023-03-27T01:20:29.460Z,985.03
2023-03-27T01:21:01.086Z,985.23
2023-03-27T01:21:33.649Z,985.23
2023-03-27T01:22:04.767Z,985.34
2023-03-27T01:22:36.864Z,985.34
2023-03-27T01:23:08.920Z,985.23
2023-03-27T01:23:36.354Z,985.23
2023-03-27T01:24:00.032Z,985.23
2023-03-27T01:24:28.784Z,985.23
2023-03-27T01:25:03.257Z,985.34
2023-03-27T01:25:33.423Z,985.34
2023-03-27T01:26:04.789Z,985.44
2023-03-27T01:26:37.303Z,985.44
2023-03-27T01:27:08.825Z,985.34
2023-03-27T01:27:34.707Z,985.54
2023-03-27T01:27:57.506Z,985.54
2023-03-27T01:28:28.799Z,985.54
2023-03-27T01:29:00.849Z,985.54
2023-03-27T01:29:33.460Z,985.54
2023-03-27T01:30:06.909Z,985.44
2023-03-27T01:30:36.801Z,985.44
2023-03-27T01:31:09.765Z,985.44
2023-03-27T01:31:34.739Z,985.54
2023-03-27T01:31:56.832Z,985.54
2023-03-27T01:32:28.797Z,985.54
2023-03-27T01:33:01.055Z,985.54
2023-03-27T01:33:33.416Z,985.54
2023-03-27T01:34:04.733Z,985.64
2023-03-27T01:34:36.796Z,985.64
2023-03-27T01:35:09.070Z,985.64
2023-03-27T01:35:34.705Z,985.71
2023-03-27T01:35:57.087Z,985.71
2023-03-27T01:36:28.797Z,985.71
2023-03-27T01:37:00.805Z,985.71
2023-03-27T01:37:34.278Z,985.71
2023-03-27T01:38:04.824Z,985.54
2023-03-27T01:38:36.779Z,985.54
2023-03-27T01:39:08.788Z,985.71
2023-03-27T01:39:34.673Z,985.81
2023-03-27T01:39:56.745Z,985.81
2023-03-27T01:40:29.080Z,985.81
2023-03-27T01:41:00.823Z,985.64
2023-03-27T01:41:33.317Z,985.64
2023-03-27T01:42:04.814Z,985.64
2023-03-27T01:42:36.765Z,985.64
2023-03-27T01:43:08.820Z,986.01
2023-03-27T01:43:34.671Z,985.71
2023-03-27T01:43:57.671Z,985.71
2023-03-27T01:44:42.552Z,985.71
2023-03-27T01:45:03.624Z,985.91
2023-03-27T01:45:33.365Z,985.91
2023-03-27T01:46:04.971Z,985.64
2023-03-27T01:46:36.845Z,985.64
2023-03-27T01:47:09.709Z,985.81
2023-03-27T01:47:34.671Z,985.81
2023-03-27T01:47:56.773Z,985.81
2023-03-27T01:48:28.718Z,985.81
2023-03-27T01:49:00.806Z,986.01
2023-03-27T01:49:33.350Z,986.01
2023-03-27T01:50:05.059Z,985.71
2023-03-27T01:50:37.062Z,985.71
2023-03-27T01:51:08.814Z,986.01
2023-03-27T01:51:34.672Z,986.01
2023-03-27T01:52:12.770Z,986.01
2023-03-27T01:52:34.697Z,986.11
2023-03-27T01:53:00.856Z,986.11
2023-03-27T01:53:33.681Z,986.11
2023-03-27T01:54:04.760Z,986.01
2023-03-27T01:54:36.782Z,986.01
2023-03-27T01:55:09.138Z,986.22
2023-03-27T01:55:35.601Z,986.11
2023-03-27T01:55:57.031Z,986.11
2023-03-27T01:56:28.760Z,986.11
2023-03-27T01:57:00.898Z,986.11
2023-03-27T01:57:33.570Z,986.11
2023-03-27T01:58:04.777Z,986.22
2023-03-27T01:58:36.799Z,986.22
2023-03-27T01:59:08.779Z,986.11
2023-03-27T01:59:34.678Z,986.11
2023-03-27T01:59:57.563Z,986.11
2023-03-27T02:00:50.865Z,986.11
2023-03-27T02:01:01.244Z,986.22
2023-03-27T02:01:33.508Z,986.22
2023-03-27T02:02:04.782Z,986.22
2023-03-27T02:02:36.754Z,986.22
2023-03-27T02:03:08.826Z,986.32
2023-03-27T02:03:34.652Z,986.32
2023-03-27T02:03:56.738Z,986.32
2023-03-27T02:04:28.821Z,986.32
2023-03-27T02:05:03.069Z,986.52
2023-03-27T02:05:33.330Z,986.52
2023-03-27T02:06:04.753Z,986.22
2023-03-27T02:06:36.735Z,986.22
2023-03-27T02:07:08.801Z,986.42
2023-03-27T02:07:34.994Z,986.32
2023-03-27T02:07:56.814Z,986.32
2023-03-27T02:08:28.784Z,986.32
2023-03-27T02:09:00.889Z,986.22
2023-03-27T02:09:33.465Z,986.22
2023-03-27T02:10:05.100Z,986.32
2023-03-27T02:10:37.701Z,986.32
2023-03-27T02:11:08.787Z,986.42
2023-03-27T02:11:35.286Z,986.52
2023-03-27T02:11:56.783Z,986.52
2023-03-27T02:12:28.764Z,986.52
2023-03-27T02:13:00.818Z,986.62
2023-03-27T02:13:33.377Z,986.62
2023-03-27T02:14:04.768Z,986.42
2023-03-27T02:14:36.737Z,986.42
2023-03-27T02:15:23.435Z,986.52
2023-03-27T02:15:35.385Z,986.62
2023-03-27T02:15:57.077Z,986.62
2023-03-27T02:16:28.877Z,986.62
2023-03-27T02:17:17.751Z,986.83
2023-03-27T02:17:38.225Z,986.72
2023-03-27T02:18:04.958Z,986.72
2023-03-27T02:18:36.805Z,986.72
2023-03-27T02:19:08.894Z,986.83
2023-03-27T02:19:34.717Z,986.72
2023-03-27T02:19:56.780Z,986.72
2023-03-27T02:20:29.037Z,986.72
2023-03-27T02:21:00.826Z,986.62
2023-03-27T02:21:33.398Z,986.62
2023-03-27T02:22:04.732Z,986.62
2023-03-27T02:22:38.030Z,986.62
2023-03-27T02:23:08.795Z,986.72
2023-03-27T02:23:34.881Z,986.52
2023-03-27T02:23:57.263Z,986.52
2023-03-27T02:24:28.810Z,986.52
2023-03-27T02:25:03.111Z,986.72
2023-03-27T02:25:33.370Z,986.72
2023-03-27T02:26:04.762Z,986.83
2023-03-27T02:26:36.805Z,986.83
2023-03-27T02:27:09.762Z,986.93
2023-03-27T02:27:34.664Z,986.72
2023-03-27T02:27:56.804Z,986.72
2023-03-27T02:28:28.724Z,986.72
2023-03-27T02:29:00.797Z,986.72
2023-03-27T02:29:33.440Z,986.72
2023-03-27T02:30:06.684Z,986.93
2023-03-27T02:30:36.783Z,986.93
2023-03-27T02:31:31.919Z,986.72
2023-03-27T02:31:35.236Z,986.72
2023-03-27T02:31:56.930Z,986.72
2023-03-27T02:32:28.847Z,986.72
2023-03-27T02:33:02.329Z,986.83
2023-03-27T02:33:33.596Z,986.83
2023-03-27T02:34:04.769Z,986.83
2023-03-27T02:34:36.867Z,986.83
2023-03-27T02:35:09.138Z,986.83
2023-03-27T02:35:35.445Z,986.72
2023-03-27T02:35:57.133Z,986.72
2023-03-27T02:36:28.757Z,986.72
2023-03-27T02:37:00.809Z,987.13
2023-03-27T02:37:33.355Z,987.13
2023-03-27T02:38:04.754Z,986.83
2023-03-27T02:38:36.768Z,986.83
2023-03-27T02:39:08.807Z,987.03
2023-03-27T02:39:35.434Z,987.13
2023-03-27T02:39:57.776Z,987.13
2023-03-27T02:40:29.082Z,987.13
2023-03-27T02:41:00.837Z,987.13
2023-03-27T02:41:33.443Z,987.13
2023-03-27T02:42:04.777Z,987.33
2023-03-27T02:42:37.094Z,987.33
2023-03-27T02:43:09.353Z,986.93
2023-03-27T02:43:34.661Z,987.13
2023-03-27T02:43:56.811Z,987.13
2023-03-27T02:44:28.781Z,987.13
2023-03-27T02:45:03.456Z,987.13
2023-03-27T02:45:33.446Z,987.13
2023-03-27T02:46:05.162Z,987.23
2023-03-27T02:46:36.781Z,987.23
2023-03-27T02:47:08.888Z,986.93
2023-03-27T02:47:34.690Z,987.03
2023-03-27T02:47:56.829Z,987.03
2023-03-27T02:48:28.802Z,987.03
2023-03-27T02:49:00.830Z,987.13
2023-03-27T02:49:33.651Z,987.13
2023-03-27T02:50:05.095Z,987.13
2023-03-27T02:50:37.109Z,987.13
2023-03-27T02:51:08.866Z,987.23
2023-03-27T02:51:34.679Z,987.33
2023-03-27T02:51:56.783Z,987.33
2023-03-27T02:52:28.758Z,987.33
2023-03-27T02:53:01.129Z,987.33
2023-03-27T02:53:33.406Z,987.33
2023-03-27T02:54:04.759Z,987.33
2023-03-27T02:54:36.755Z,987.33
2023-03-27T02:55:09.193Z,987.13
2023-03-27T02:55:34.690Z,987.23
2023-03-27T02:55:57.867Z,987.23
2023-03-27T02:56:28.859Z,987.23
2023-03-27T02:57:00.859Z,987.64
2023-03-27T02:57:33.422Z,987.64
2023-03-27T02:58:04.757Z,987.54
2023-03-27T02:58:36.814Z,987.54
2023-03-27T02:59:13.716Z,987.54
2023-03-27T02:59:35.173Z,987.64
2023-03-27T02:59:56.908Z,987.64
2023-03-27T03:00:29.266Z,987.64
2023-03-27T03:01:00.899Z,987.54
2023-03-27T03:01:33.334Z,987.54
2023-03-27T03:02:04.813Z,987.33
2023-03-27T03:02:36.867Z,987.33
2023-03-27T03:03:08.947Z,987.54
2023-03-27T03:03:34.763Z,987.54
2023-03-27T03:03:57.025Z,987.54
2023-03-27T03:04:28.766Z,987.54
2023-03-27T03:05:03.331Z,987.64
2023-03-27T03:05:33.461Z,987.64
2023-03-27T03:06:04.824Z,987.54
2023-03-27T03:06:36.781Z,987.54
2023-03-27T03:07:08.840Z,987.74
2023-03-27T03:07:35.370Z,987.64
2023-03-27T03:07:56.863Z,987.64
2023-03-27T03:08:28.776Z,987.64
2023-03-27T03:09:00.845Z,987.74
2023-03-27T03:09:33.419Z,987.74
2023-03-27T03:10:05.140Z,987.74
2023-03-27T03:10:37.272Z,987.74
2023-03-27T03:11:08.849Z,987.64
2023-03-27T03:11:34.675Z,987.81
2023-03-27T03:11:56.811Z,987.81
2023-03-27T03:12:28.801Z,987.81
2023-03-27T03:13:00.845Z,987.74
2023-03-27T03:13:33.483Z,987.74
2023-03-27T03:14:04.850Z,987.74
2023-03-27T03:14:36.847Z,987.74
2023-03-27T03:15:09.362Z,987.81
2023-03-27T03:15:35.202Z,987.74
2023-03-27T03:15:57.089Z,987.74
2023-03-27T03:16:28.807Z,987.74
2023-03-27T03:17:01.573Z,987.81
2023-03-27T03:17:33.430Z,987.81
2023-03-27T03:18:04.894Z,987.91
2023-03-27T03:18:36.801Z,987.91
2023-03-27T03:19:08.852Z,987.81
2023-03-27T03:19:35.391Z,988.01
2023-03-27T03:19:56.860Z,988.01
2023-03-27T03:20:29.146Z,988.01
2023-03-27T03:21:00.915Z,987.91
2023-03-27T03:21:33.422Z,987.91
2023-03-27T03:22:04.834Z,987.81
2023-03-27T03:22:36.805Z,987.81
2023-03-27T03:23:08.911Z,988.01
2023-03-27T03:23:34.664Z,988.01
2023-03-27T03:23:58.284Z,988.01
2023-03-27T03:24:28.781Z,988.01
2023-03-27T03:25:03.390Z,988.11
2023-03-27T03:25:33.491Z,988.11
2023-03-27T03:26:04.790Z,988.11
2023-03-27T03:26:37.766Z,988.11
2023-03-27T03:27:08.829Z,988.11
2023-03-27T03:27:34.667Z,988.01
2023-03-27T03:27:56.818Z,988.01
2023-03-27T03:28:28.801Z,988.01
2023-03-27T03:29:01.673Z,988.11
2023-03-27T03:29:33.394Z,988.11
2023-03-27T03:30:06.867Z,988.11
2023-03-27T03:30:36.870Z,988.11
2023-03-27T03:31:08.906Z,988.21
2023-03-27T03:31:34.972Z,988.01
2023-03-27T03:31:56.809Z,988.01
2023-03-27T03:32:28.784Z,988.01
2023-03-27T03:33:03.646Z,988.21
2023-03-27T03:33:33.622Z,988.21
2023-03-27T03:34:04.794Z,988.11
2023-03-27T03:34:37.098Z,988.11
2023-03-27T03:35:09.099Z,988.21
2023-03-27T03:35:34.729Z,988.21
2023-03-27T03:35:57.128Z,988.21
2023-03-27T03:36:28.786Z,988.21
2023-03-27T03:37:00.883Z,988.42
2023-03-27T03:37:33.478Z,988.42
2023-03-27T03:38:04.839Z,988.42
2023-03-27T03:38:38.125Z,988.42
2023-03-27T03:39:08.878Z,988.42
2023-03-27T03:39:34.661Z,988.32
2023-03-27T03:39:56.813Z,988.32
2023-03-27T03:40:29.120Z,988.32
2023-03-27T03:41:00.827Z,988.52
2023-03-27T03:41:33.462Z,988.52
2023-03-27T03:42:04.796Z,988.52
2023-03-27T03:42:40.345Z,988.52
2023-03-27T03:43:08.845Z,988.52
2023-03-27T03:43:34.670Z,988.32
2023-03-27T03:43:56.845Z,988.32
2023-03-27T03:44:28.843Z,988.32
2023-03-27T03:45:03.871Z,988.72
2023-03-27T03:45:33.549Z,988.72
2023-03-27T03:46:06.391Z,988.62
2023-03-27T03:46:36.884Z,988.62
2023-03-27T03:47:08.849Z,988.62
2023-03-27T03:47:35.106Z,988.52
2023-03-27T03:47:57.524Z,988.52
2023-03-27T03:48:28.803Z,988.52
2023-03-27T03:49:04.421Z,988.62
2023-03-27T03:49:33.389Z,988.62
2023-03-27T03:50:05.147Z,988.72
2023-03-27T03:50:36.820Z,988.72
2023-03-27T03:51:08.850Z,988.82
2023-03-27T03:51:34.703Z,988.52
2023-03-27T03:52:03.758Z,988.52
2023-03-27T03:52:28.811Z,988.52
2023-03-27T03:53:00.879Z,988.82
2023-03-27T03:53:33.443Z,988.82
2023-03-27T03:54:04.819Z,988.82
2023-03-27T03:54:36.842Z,988.82
2023-03-27T03:55:09.148Z,988.93
2023-03-27T03:55:34.675Z,988.93
2023-03-27T03:55:57.103Z,988.93
2023-03-27T03:56:28.831Z,988.93
2023-03-27T03:57:01.079Z,988.82
2023-03-27T03:57:33.448Z,988.82
2023-03-27T03:58:04.795Z,988.93
2023-03-27T03:58:37.476Z,988.93
2023-03-27T03:59:08.844Z,988.93
2023-03-27T03:59:34.722Z,988.93
2023-03-27T03:59:56.864Z,988.93
2023-03-27T04:00:29.341Z,988.93
2023-03-27T04:01:00.914Z,988.82
2023-03-27T04:01:33.540Z,988.82
2023-03-27T04:02:04.466Z,988.93
2023-03-27T04:02:36.364Z,988.93
2023-03-27T04:03:08.560Z,989.03
2023-03-27T04:03:34.249Z,989.03
2023-03-27T04:03:56.385Z,989.03
2023-03-27T04:04:28.330Z,989.03
2023-03-27T04:05:00.666Z,988.82
2023-03-27T04:05:32.274Z,988.82
2023-03-27T04:06:04.284Z,988.93
2023-03-27T04:06:37.629Z,988.93
2023-03-27T04:07:09.480Z,989.13
2023-03-27T04:07:34.811Z,989.13
2023-03-27T04:07:56.826Z,989.13
2023-03-27T04:08:28.804Z,989.13
2023-03-27T04:09:01.269Z,989.13
2023-03-27T04:09:32.930Z,989.13
2023-03-27T04:10:05.139Z,989.23
2023-03-27T04:10:38.521Z,989.23
2023-03-27T04:11:08.937Z,989.13
2023-03-27T04:11:36.999Z,989.23
2023-03-27T04:11:56.785Z,989.23
2023-03-27T04:12:28.835Z,989.23
2023-03-27T04:13:01.253Z,989.13
2023-03-27T04:13:32.904Z,989.13
2023-03-27T04:14:04.901Z,989.23
2023-03-27T04:14:36.841Z,989.23
2023-03-27T04:15:10.281Z,989.43
2023-03-27T04:15:35.414Z,989.33
2023-03-27T04:15:57.110Z,989.33
2023-03-27T04:16:28.921Z,989.33
2023-03-27T04:17:01.711Z,989.43
2023-03-27T04:17:33.003Z,989.43
2023-03-27T04:18:04.940Z,989.23
2023-03-27T04:18:36.916Z,989.23
2023-03-27T04:19:08.813Z,989.43
2023-03-27T04:19:34.650Z,989.33
2023-03-27T04:19:56.874Z,989.33
2023-03-27T04:20:29.171Z,989.33
2023-03-27T04:21:01.414Z,989.23
2023-03-27T04:21:32.878Z,989.23
2023-03-27T04:22:04.813Z,989.53
2023-03-27T04:22:36.805Z,989.53
2023-03-27T04:23:08.820Z,989.43
2023-03-27T04:23:34.656Z,989.33
2023-03-27T04:23:56.826Z,989.33
2023-03-27T04:24:28.871Z,989.33
2023-03-27T04:25:03.079Z,989.43
2023-03-27T04:25:32.894Z,989.43
2023-03-27T04:26:04.867Z,989.53
2023-03-27T04:26:37.950Z,989.53
2023-03-27T04:27:09.405Z,989.53
2023-03-27T04:27:35.461Z,989.64
2023-03-27T04:27:56.805Z,989.64
2023-03-27T04:28:28.836Z,989.64
2023-03-27T04:29:01.357Z,989.74
2023-03-27T04:29:32.888Z,989.74
2023-03-27T04:30:06.725Z,989.64
2023-03-27T04:30:36.871Z,989.64
2023-03-27T04:31:08.861Z,989.64
2023-03-27T04:31:34.885Z,989.84
2023-03-27T04:31:56.800Z,989.84
2023-03-27T04:32:28.897Z,989.84
2023-03-27T04:33:03.548Z,989.64
2023-03-27T04:33:32.943Z,989.64
2023-03-27T04:34:04.840Z,989.84
2023-03-27T04:34:37.091Z,989.84
2023-03-27T04:35:09.263Z,989.84
2023-03-27T04:35:34.692Z,989.64
2023-03-27T04:36:05.291Z,989.64
2023-03-27T04:36:30.735Z,989.64
2023-03-27T04:37:01.312Z,989.91
2023-03-27T04:37:32.912Z,989.91
2023-03-27T04:38:04.817Z,989.74
2023-03-27T04:38:37.069Z,989.74
2023-03-27T04:39:08.846Z,989.74
2023-03-27T04:39:34.659Z,990.01
2023-03-27T04:39:56.822Z,990.01
2023-03-27T04:40:29.128Z,990.01
2023-03-27T04:41:02.538Z,989.84
2023-03-27T04:41:32.946Z,989.84
2023-03-27T04:42:04.861Z,989.91
2023-03-27T04:42:42.408Z,989.91
2023-03-27T04:43:08.883Z,989.91
2023-03-27T04:43:34.738Z,989.91
2023-03-27T04:43:56.811Z,989.91
2023-03-27T04:44:28.845Z,989.91
2023-03-27T04:45:03.450Z,989.91
2023-03-27T04:45:32.897Z,989.91
2023-03-27T04:46:05.079Z,990.01
2023-03-27T04:46:36.948Z,990.01
2023-03-27T04:47:09.477Z,990.11
2023-03-27T04:47:34.683Z,990.11
2023-03-27T04:47:56.870Z,990.11
2023-03-27T04:48:28.862Z,990.11
2023-03-27T04:49:01.545Z,990.01
2023-03-27T04:49:32.932Z,990.01
2023-03-27T04:50:05.214Z,990.31
2023-03-27T04:50:36.860Z,990.31
2023-03-27T04:51:08.879Z,990.01
2023-03-27T04:51:34.658Z,990.11
2023-03-27T04:51:56.801Z,990.11
2023-03-27T04:52:29.916Z,990.11
2023-03-27T04:53:01.296Z,990.11
2023-03-27T04:53:32.927Z,990.11
2023-03-27T04:54:04.919Z,990.21
2023-03-27T04:54:36.834Z,990.21
2023-03-27T04:55:09.146Z,990.31
2023-03-27T04:55:35.115Z,990.01
2023-03-27T04:55:57.919Z,990.01
2023-03-27T04:56:28.919Z,990.01
2023-03-27T04:57:01.410Z,990.01
2023-03-27T04:57:32.908Z,990.01
2023-03-27T04:58:04.851Z,990.21
2023-03-27T04:58:37.731Z,990.21
2023-03-27T04:59:09.746Z,990.31
2023-03-27T04:59:34.847Z,990.42
2023-03-27T04:59:56.834Z,990.42
2023-03-27T05:00:29.472Z,990.42
2023-03-27T05:01:01.551Z,990.11
2023-03-27T05:01:32.965Z,990.11
2023-03-27T05:02:04.818Z,990.31
2023-03-27T05:02:36.896Z,990.31
2023-03-27T05:03:09.006Z,990.31
2023-03-27T05:03:35.016Z,990.42
2023-03-27T05:03:56.916Z,990.42
2023-03-27T05:04:28.934Z,990.42
2023-03-27T05:05:03.241Z,990.42
2023-03-27T05:05:33.674Z,990.42
2023-03-27T05:06:04.863Z,990.42
2023-03-27T05:07:08.927Z,990.42
2023-03-27T05:07:34.651Z,990.11
2023-03-27T05:07:57.153Z,990.11
2023-03-27T05:08:28.890Z,990.11
2023-03-27T05:09:01.411Z,990.31
2023-03-27T05:09:32.929Z,990.31
2023-03-27T05:10:05.168Z,990.42
2023-03-27T05:10:36.871Z,990.42
2023-03-27T05:11:08.885Z,990.52
2023-03-27T05:11:34.645Z,990.52
2023-03-27T05:11:57.645Z,990.52
2023-03-27T05:12:28.933Z,990.52
2023-03-27T05:13:01.357Z,990.62
2023-03-27T05:13:32.957Z,990.62
2023-03-27T05:14:04.901Z,990.42
2023-03-27T05:14:36.994Z,990.42
2023-03-27T05:15:10.387Z,990.52
2023-03-27T05:15:34.793Z,990.72
2023-03-27T05:15:57.257Z,990.72
2023-03-27T05:16:29.084Z,990.72
2023-03-27T05:17:01.433Z,990.72
2023-03-27T05:17:33.126Z,990.72
2023-03-27T05:18:05.013Z,990.82
2023-03-27T05:18:37.307Z,990.82
2023-03-27T05:19:09.069Z,990.72
2023-03-27T05:19:34.772Z,990.82
2023-03-27T05:19:57.010Z,990.82
2023-03-27T05:20:29.758Z,990.82
2023-03-27T05:21:01.597Z,990.72
2023-03-27T05:21:33.837Z,990.72
2023-03-27T05:22:05.041Z,990.72
2023-03-27T05:22:37.011Z,990.72
2023-03-27T05:23:09.045Z,990.72
2023-03-27T05:23:34.769Z,991.02
2023-03-27T05:23:56.975Z,991.02
2023-03-27T05:24:29.000Z,991.02
2023-03-27T05:25:03.346Z,990.82
2023-03-27T05:25:33.010Z,990.82
2023-03-27T05:26:04.958Z,991.02
2023-03-27T05:26:38.548Z,991.02
2023-03-27T05:27:09.047Z,990.92
2023-03-27T05:27:34.783Z,990.92
2023-03-27T05:27:59.305Z,990.92
2023-03-27T05:28:29.147Z,990.92
2023-03-27T05:29:01.592Z,991.02
2023-03-27T05:29:47.292Z,991.02
2023-03-27T05:30:06.822Z,991.02
2023-03-27T05:30:37.000Z,991.02
2023-03-27T05:31:09.856Z,990.92
2023-03-27T05:31:34.764Z,991.13
2023-03-27T05:31:57.331Z,991.13
2023-03-27T05:32:29.008Z,991.13
2023-03-27T05:33:03.017Z,990.92
2023-03-27T05:33:33.043Z,990.92
2023-03-27T05:34:04.983Z,991.13
2023-03-27T05:34:36.990Z,991.13
2023-03-27T05:35:09.353Z,991.13
2023-03-27T05:35:34.815Z,991.02
2023-03-27T05:35:57.291Z,991.02
2023-03-27T05:36:29.013Z,991.02
2023-03-27T05:37:01.527Z,991.13
2023-03-27T05:37:34.305Z,991.13
2023-03-27T05:38:04.989Z,991.13
2023-03-27T05:38:37.051Z,991.13
2023-03-27T05:39:09.101Z,991.23
2023-03-27T05:39:34.734Z,991.23
2023-03-27T05:39:57.003Z,991.23
2023-03-27T05:40:29.311Z,991.23
2023-03-27T05:41:02.001Z,991.23
2023-03-27T05:41:33.062Z,991.23
2023-03-27T05:42:05.017Z,991.33
2023-03-27T05:42:36.970Z,991.33
2023-03-27T05:43:09.067Z,991.33
2023-03-27T05:43:34.781Z,991.33
2023-03-27T05:43:57.042Z,991.33
2023-03-27T05:44:29.558Z,991.33
2023-03-27T05:45:03.704Z,991.43
2023-03-27T05:45:33.117Z,991.43
2023-03-27T05:46:05.323Z,991.43
2023-03-27T05:46:37.003Z,991.43
2023-03-27T05:47:09.102Z,991.23
2023-03-27T05:47:35.461Z,991.33
2023-03-27T05:47:57.783Z,991.33
2023-03-27T05:48:29.012Z,991.33
2023-03-27T05:49:01.561Z,991.23
2023-03-27T05:49:34.172Z,991.23
2023-03-27T05:50:05.335Z,991.33
2023-03-27T05:50:37.617Z,991.33
2023-03-27T05:51:09.041Z,991.33
2023-03-27T05:51:34.785Z,991.43
2023-03-27T05:51:56.998Z,991.43
2023-03-27T05:52:29.082Z,991.43
2023-03-27T05:53:01.551Z,991.43
2023-03-27T05:53:33.141Z,991.43
2023-03-27T05:54:05.001Z,991.53
2023-03-27T05:54:36.997Z,991.53
2023-03-27T05:55:09.351Z,991.53
2023-03-27T05:55:34.781Z,991.43
2023-03-27T05:56:02.818Z,991.43
2023-03-27T05:56:29.025Z,991.43
2023-03-27T05:57:01.672Z,991.33
2023-03-27T05:57:33.038Z,991.33
2023-03-27T05:58:04.987Z,991.53
2023-03-27T05:58:36.985Z,991.53
2023-03-27T05:59:09.094Z,991.63
2023-03-27T05:59:34.881Z,991.74
2023-03-27T05:59:57.025Z,991.74
2023-03-27T06:00:35.353Z,991.84
2023-03-27T06:01:38.771Z,991.74
2023-03-27T06:02:37.196Z,991.74
2023-03-27T06:03:35.683Z,991.74
2023-03-27T06:03:57.155Z,991.74
2023-03-27T06:04:34.830Z,991.63
2023-03-27T06:05:03.396Z,991.63
2023-03-27T06:05:33.085Z,991.63
2023-03-27T06:06:37.603Z,991.74
2023-03-27T06:07:34.801Z,991.74
2023-03-27T06:07:57.013Z,991.74
2023-03-27T06:08:34.833Z,991.63
2023-03-27T06:09:01.588Z,991.63
2023-03-27T06:09:39.431Z,991.84
2023-03-27T06:10:05.309Z,991.84
2023-03-27T06:10:37.315Z,991.84
2023-03-27T06:11:09.148Z,991.74
2023-03-27T06:11:34.786Z,991.84
2023-03-27T06:12:34.760Z,991.84
2023-03-27T06:13:02.444Z,991.84
2023-03-27T06:13:33.041Z,991.84
2023-03-27T06:14:05.015Z,991.84
2023-03-27T06:14:37.068Z,991.84
2023-03-27T06:15:09.663Z,991.84
2023-03-27T06:15:34.804Z,991.94
2023-03-27T06:15:57.663Z,991.94
2023-03-27T06:16:29.099Z,991.94
2023-03-27T06:17:01.610Z,991.84
2023-03-27T06:17:33.110Z,991.84
2023-03-27T06:18:05.080Z,991.94